sensor_id;sensor_type;location;lat;lon;timestamp;temperature;humidity
67054;SHT31;53960;51.826;5.850;2023-10-31T00:01:03;11.61;96.79
67054;SHT31;53960;51.826;5.850;2023-10-31T00:03:28;11.61;96.39
67054;SHT31;53960;51.826;5.850;2023-10-31T00:05:53;11.57;96.13
67054;SHT31;53960;51.826;5.850;2023-10-31T00:08:19;11.55;96.52
67054;SHT31;53960;51.826;5.850;2023-10-31T00:10:44;11.52;96.26
67054;SHT31;53960;51.826;5.850;2023-10-31T00:13:10;11.42;96.69
67054;SHT31;53960;51.826;5.850;2023-10-31T00:15:35;11.41;96.52
67054;SHT31;53960;51.826;5.850;2023-10-31T00:18:00;11.39;96.92
67054;SHT31;53960;51.826;5.850;2023-10-31T00:20:26;11.41;96.92
67054;SHT31;53960;51.826;5.850;2023-10-31T00:22:51;11.45;96.35
67054;SHT31;53960;51.826;5.850;2023-10-31T00:25:17;11.48;95.98
67054;SHT31;53960;51.826;5.850;2023-10-31T00:27:42;11.42;95.52
67054;SHT31;53960;51.826;5.850;2023-10-31T00:30:07;11.28;95.93
67054;SHT31;53960;51.826;5.850;2023-10-31T00:32:33;11.27;96.19
67054;SHT31;53960;51.826;5.850;2023-10-31T00:34:58;11.23;96.08
67054;SHT31;53960;51.826;5.850;2023-10-31T00:37:24;11.25;96.08
67054;SHT31;53960;51.826;5.850;2023-10-31T00:39:49;11.17;96.03
67054;SHT31;53960;51.826;5.850;2023-10-31T00:42:15;11.27;95.94
67054;SHT31;53960;51.826;5.850;2023-10-31T00:44:40;11.24;96.27
67054;SHT31;53960;51.826;5.850;2023-10-31T00:47:05;11.27;96.23
67054;SHT31;53960;51.826;5.850;2023-10-31T00:49:31;11.21;96.10
67054;SHT31;53960;51.826;5.850;2023-10-31T00:51:56;11.23;96.18
67054;SHT31;53960;51.826;5.850;2023-10-31T00:54:22;11.25;96.02
67054;SHT31;53960;51.826;5.850;2023-10-31T00:56:48;11.20;96.47
67054;SHT31;53960;51.826;5.850;2023-10-31T00:59:13;11.28;96.18
67054;SHT31;53960;51.826;5.850;2023-10-31T01:01:38;11.30;96.11
67054;SHT31;53960;51.826;5.850;2023-10-31T01:04:04;11.32;96.26
67054;SHT31;53960;51.826;5.850;2023-10-31T01:06:29;11.28;96.65
67054;SHT31;53960;51.826;5.850;2023-10-31T01:08:54;11.32;96.26
67054;SHT31;53960;51.826;5.850;2023-10-31T01:11:20;11.32;96.70
67054;SHT31;53960;51.826;5.850;2023-10-31T01:13:45;11.31;96.77
67054;SHT31;53960;51.826;5.850;2023-10-31T01:16:11;11.39;96.60
67054;SHT31;53960;51.826;5.850;2023-10-31T01:18:37;11.36;96.72
67054;SHT31;53960;51.826;5.850;2023-10-31T01:21:02;11.34;96.97
67054;SHT31;53960;51.826;5.850;2023-10-31T01:23:28;11.34;97.15
67054;SHT31;53960;51.826;5.850;2023-10-31T01:25:53;11.42;96.55
67054;SHT31;53960;51.826;5.850;2023-10-31T01:28:18;11.44;96.61
67054;SHT31;53960;51.826;5.850;2023-10-31T01:30:44;11.41;96.60
67054;SHT31;53960;51.826;5.850;2023-10-31T01:33:09;11.46;96.93
67054;SHT31;53960;51.826;5.850;2023-10-31T01:35:35;11.46;96.54
67054;SHT31;53960;51.826;5.850;2023-10-31T01:38:00;11.44;96.76
67054;SHT31;53960;51.826;5.850;2023-10-31T01:40:26;11.44;96.77
67054;SHT31;53960;51.826;5.850;2023-10-31T01:42:51;11.36;96.75
67054;SHT31;53960;51.826;5.850;2023-10-31T01:45:17;11.38;96.96
67054;SHT31;53960;51.826;5.850;2023-10-31T01:47:44;11.39;96.89
67054;SHT31;53960;51.826;5.850;2023-10-31T01:50:11;11.39;96.67
67054;SHT31;53960;51.826;5.850;2023-10-31T01:52:37;11.36;96.94
67054;SHT31;53960;51.826;5.850;2023-10-31T01:55:03;11.41;96.75
67054;SHT31;53960;51.826;5.850;2023-10-31T01:57:29;11.36;97.00
67054;SHT31;53960;51.826;5.850;2023-10-31T01:59:55;11.35;97.19
67054;SHT31;53960;51.826;5.850;2023-10-31T02:02:22;11.38;97.29
67054;SHT31;53960;51.826;5.850;2023-10-31T02:04:49;11.36;97.09
67054;SHT31;53960;51.826;5.850;2023-10-31T02:07:14;11.41;97.07
67054;SHT31;53960;51.826;5.850;2023-10-31T02:09:40;11.45;96.86
67054;SHT31;53960;51.826;5.850;2023-10-31T02:12:05;11.41;97.29
67054;SHT31;53960;51.826;5.850;2023-10-31T02:14:31;11.41;97.02
67054;SHT31;53960;51.826;5.850;2023-10-31T02:16:56;11.46;96.80
67054;SHT31;53960;51.826;5.850;2023-10-31T02:19:21;11.44;96.76
67054;SHT31;53960;51.826;5.850;2023-10-31T02:21:47;11.48;96.95
67054;SHT31;53960;51.826;5.850;2023-10-31T02:24:12;11.50;96.77
67054;SHT31;53960;51.826;5.850;2023-10-31T02:26:37;11.42;96.97
67054;SHT31;53960;51.826;5.850;2023-10-31T02:29:03;11.39;97.08
67054;SHT31;53960;51.826;5.850;2023-10-31T02:31:29;11.44;97.10
67054;SHT31;53960;51.826;5.850;2023-10-31T02:33:55;11.44;97.25
67054;SHT31;53960;51.826;5.850;2023-10-31T02:36:20;11.38;97.34
67054;SHT31;53960;51.826;5.850;2023-10-31T02:38:46;11.39;97.32
67054;SHT31;53960;51.826;5.850;2023-10-31T02:41:12;11.45;97.13
67054;SHT31;53960;51.826;5.850;2023-10-31T02:43:38;11.39;96.98
67054;SHT31;53960;51.826;5.850;2023-10-31T02:46:03;11.41;97.16
67054;SHT31;53960;51.826;5.850;2023-10-31T02:48:29;11.44;97.13
67054;SHT31;53960;51.826;5.850;2023-10-31T02:50:57;11.38;97.16
67054;SHT31;53960;51.826;5.850;2023-10-31T02:53:23;11.41;97.38
67054;SHT31;53960;51.826;5.850;2023-10-31T02:55:48;11.41;97.38
67054;SHT31;53960;51.826;5.850;2023-10-31T02:58:14;11.42;97.48
67054;SHT31;53960;51.826;5.850;2023-10-31T03:00:39;11.48;97.42
67054;SHT31;53960;51.826;5.850;2023-10-31T03:03:05;11.42;97.63
67054;SHT31;53960;51.826;5.850;2023-10-31T03:05:30;11.39;97.39
67054;SHT31;53960;51.826;5.850;2023-10-31T03:07:55;11.41;97.32
67054;SHT31;53960;51.826;5.850;2023-10-31T03:10:21;11.50;97.45
67054;SHT31;53960;51.826;5.850;2023-10-31T03:12:47;11.48;97.38
67054;SHT31;53960;51.826;5.850;2023-10-31T03:15:12;11.46;97.47
67054;SHT31;53960;51.826;5.850;2023-10-31T03:17:37;11.45;97.54
67054;SHT31;53960;51.826;5.850;2023-10-31T03:20:03;11.45;97.47
67054;SHT31;53960;51.826;5.850;2023-10-31T03:22:29;11.48;97.33
67054;SHT31;53960;51.826;5.850;2023-10-31T03:24:54;11.52;97.31
67054;SHT31;53960;51.826;5.850;2023-10-31T03:27:19;11.55;97.03
67054;SHT31;53960;51.826;5.850;2023-10-31T03:29:45;11.55;97.05
67054;SHT31;53960;51.826;5.850;2023-10-31T03:32:11;11.54;97.11
67054;SHT31;53960;51.826;5.850;2023-10-31T03:34:37;11.54;97.15
67054;SHT31;53960;51.826;5.850;2023-10-31T03:37:02;11.51;97.22
67054;SHT31;53960;51.826;5.850;2023-10-31T03:39:28;11.57;96.70
67054;SHT31;53960;51.826;5.850;2023-10-31T03:41:53;11.54;96.94
67054;SHT31;53960;51.826;5.850;2023-10-31T03:44:19;11.54;96.81
67054;SHT31;53960;51.826;5.850;2023-10-31T03:46:44;11.48;97.03
67054;SHT31;53960;51.826;5.850;2023-10-31T03:49:10;11.57;96.89
67054;SHT31;53960;51.826;5.850;2023-10-31T03:51:35;11.48;96.90
67054;SHT31;53960;51.826;5.850;2023-10-31T03:54:00;11.50;96.96
67054;SHT31;53960;51.826;5.850;2023-10-31T03:56:26;11.50;97.01
67054;SHT31;53960;51.826;5.850;2023-10-31T03:58:51;11.48;97.07
67054;SHT31;53960;51.826;5.850;2023-10-31T04:01:16;11.48;97.03
67054;SHT31;53960;51.826;5.850;2023-10-31T04:03:43;11.50;97.17
67054;SHT31;53960;51.826;5.850;2023-10-31T04:06:08;11.45;97.36
67054;SHT31;53960;51.826;5.850;2023-10-31T04:08:34;11.50;96.78
67054;SHT31;53960;51.826;5.850;2023-10-31T04:10:59;11.51;96.84
67054;SHT31;53960;51.826;5.850;2023-10-31T04:13:24;11.51;97.06
67054;SHT31;53960;51.826;5.850;2023-10-31T04:15:50;11.46;97.28
67054;SHT31;53960;51.826;5.850;2023-10-31T04:18:15;11.41;97.50
67054;SHT31;53960;51.826;5.850;2023-10-31T04:20:42;11.45;97.44
67054;SHT31;53960;51.826;5.850;2023-10-31T04:23:07;11.44;97.61
67054;SHT31;53960;51.826;5.850;2023-10-31T04:25:33;11.41;97.66
67054;SHT31;53960;51.826;5.850;2023-10-31T04:27:58;11.39;97.80
67054;SHT31;53960;51.826;5.850;2023-10-31T04:30:24;11.38;97.62
67054;SHT31;53960;51.826;5.850;2023-10-31T04:32:49;11.38;97.60
67054;SHT31;53960;51.826;5.850;2023-10-31T04:35:15;11.48;96.98
67054;SHT31;53960;51.826;5.850;2023-10-31T04:37:40;11.42;97.20
67054;SHT31;53960;51.826;5.850;2023-10-31T04:40:06;11.39;97.17
67054;SHT31;53960;51.826;5.850;2023-10-31T04:42:32;11.36;97.41
67054;SHT31;53960;51.826;5.850;2023-10-31T04:44:59;11.35;97.54
67054;SHT31;53960;51.826;5.850;2023-10-31T04:47:24;11.38;97.65
67054;SHT31;53960;51.826;5.850;2023-10-31T04:49:50;11.34;97.62
67054;SHT31;53960;51.826;5.850;2023-10-31T04:52:16;11.35;97.54
67054;SHT31;53960;51.826;5.850;2023-10-31T04:54:42;11.34;97.44
67054;SHT31;53960;51.826;5.850;2023-10-31T04:57:07;11.27;97.62
67054;SHT31;53960;51.826;5.850;2023-10-31T04:59:33;11.31;97.03
67054;SHT31;53960;51.826;5.850;2023-10-31T05:01:58;11.31;96.79
67054;SHT31;53960;51.826;5.850;2023-10-31T05:04:23;11.31;96.69
67054;SHT31;53960;51.826;5.850;2023-10-31T05:06:49;11.23;97.09
67054;SHT31;53960;51.826;5.850;2023-10-31T05:09:14;11.27;96.73
67054;SHT31;53960;51.826;5.850;2023-10-31T05:11:40;11.27;96.93
67054;SHT31;53960;51.826;5.850;2023-10-31T05:14:08;11.27;96.90
67054;SHT31;53960;51.826;5.850;2023-10-31T05:16:39;11.24;97.10
67054;SHT31;53960;51.826;5.850;2023-10-31T05:19:05;11.30;97.13
67054;SHT31;53960;51.826;5.850;2023-10-31T05:21:30;11.23;97.24
67054;SHT31;53960;51.826;5.850;2023-10-31T05:23:56;11.23;97.27
67054;SHT31;53960;51.826;5.850;2023-10-31T05:26:21;11.25;97.12
67054;SHT31;53960;51.826;5.850;2023-10-31T05:28:46;11.32;96.95
67054;SHT31;53960;51.826;5.850;2023-10-31T05:31:15;11.24;96.85
67054;SHT31;53960;51.826;5.850;2023-10-31T05:33:40;11.25;97.06
67054;SHT31;53960;51.826;5.850;2023-10-31T05:36:06;11.18;97.25
67054;SHT31;53960;51.826;5.850;2023-10-31T05:38:31;11.23;97.09
67054;SHT31;53960;51.826;5.850;2023-10-31T05:40:57;11.20;96.94
67054;SHT31;53960;51.826;5.850;2023-10-31T05:43:22;11.23;96.78
67054;SHT31;53960;51.826;5.850;2023-10-31T05:45:47;11.21;96.76
67054;SHT31;53960;51.826;5.850;2023-10-31T05:48:13;11.21;97.03
67054;SHT31;53960;51.826;5.850;2023-10-31T05:50:41;11.27;96.84
67054;SHT31;53960;51.826;5.850;2023-10-31T05:53:06;11.23;97.06
67054;SHT31;53960;51.826;5.850;2023-10-31T05:55:32;11.27;96.94
67054;SHT31;53960;51.826;5.850;2023-10-31T05:57:59;11.30;97.05
67054;SHT31;53960;51.826;5.850;2023-10-31T06:00:25;11.23;97.09
67054;SHT31;53960;51.826;5.850;2023-10-31T06:02:51;11.24;97.27
67054;SHT31;53960;51.826;5.850;2023-10-31T06:05:16;11.28;97.32
67054;SHT31;53960;51.826;5.850;2023-10-31T06:07:44;11.23;97.46
67054;SHT31;53960;51.826;5.850;2023-10-31T06:10:10;11.21;97.57
67054;SHT31;53960;51.826;5.850;2023-10-31T06:12:35;11.18;97.66
67054;SHT31;53960;51.826;5.850;2023-10-31T06:15:01;11.18;97.69
67054;SHT31;53960;51.826;5.850;2023-10-31T06:17:26;11.23;97.64
67054;SHT31;53960;51.826;5.850;2023-10-31T06:19:52;11.18;97.58
67054;SHT31;53960;51.826;5.850;2023-10-31T06:22:17;11.15;97.67
67054;SHT31;53960;51.826;5.850;2023-10-31T06:24:42;11.18;97.61
67054;SHT31;53960;51.826;5.850;2023-10-31T06:27:08;11.21;97.52
67054;SHT31;53960;51.826;5.850;2023-10-31T06:29:33;11.21;97.40
67054;SHT31;53960;51.826;5.850;2023-10-31T06:31:58;11.20;97.48
67054;SHT31;53960;51.826;5.850;2023-10-31T06:34:24;11.18;97.45
67054;SHT31;53960;51.826;5.850;2023-10-31T06:36:50;11.24;97.51
67054;SHT31;53960;51.826;5.850;2023-10-31T06:39:17;11.25;97.39
67054;SHT31;53960;51.826;5.850;2023-10-31T06:41:42;11.30;97.18
67054;SHT31;53960;51.826;5.850;2023-10-31T06:44:07;11.27;97.28
67054;SHT31;53960;51.826;5.850;2023-10-31T06:46:33;11.27;97.36
67054;SHT31;53960;51.826;5.850;2023-10-31T06:48:58;11.27;97.35
67054;SHT31;53960;51.826;5.850;2023-10-31T06:51:23;11.31;97.33
67054;SHT31;53960;51.826;5.850;2023-10-31T06:53:49;11.30;97.34
67054;SHT31;53960;51.826;5.850;2023-10-31T06:56:16;11.25;97.48
67054;SHT31;53960;51.826;5.850;2023-10-31T06:58:41;11.25;97.63
67054;SHT31;53960;51.826;5.850;2023-10-31T07:01:06;11.30;97.54
67054;SHT31;53960;51.826;5.850;2023-10-31T07:03:32;11.32;97.42
67054;SHT31;53960;51.826;5.850;2023-10-31T07:05:57;11.30;97.14
67054;SHT31;53960;51.826;5.850;2023-10-31T07:08:24;11.30;97.23
67054;SHT31;53960;51.826;5.850;2023-10-31T07:10:49;11.35;97.16
67054;SHT31;53960;51.826;5.850;2023-10-31T07:13:15;11.35;97.23
67054;SHT31;53960;51.826;5.850;2023-10-31T07:15:41;11.41;97.31
67054;SHT31;53960;51.826;5.850;2023-10-31T07:18:06;11.44;97.11
67054;SHT31;53960;51.826;5.850;2023-10-31T07:20:35;11.44;97.06
67054;SHT31;53960;51.826;5.850;2023-10-31T07:23:00;11.44;97.06
67054;SHT31;53960;51.826;5.850;2023-10-31T07:25:25;11.48;97.00
67054;SHT31;53960;51.826;5.850;2023-10-31T07:27:51;11.44;97.11
67054;SHT31;53960;51.826;5.850;2023-10-31T07:30:16;11.39;97.21
67054;SHT31;53960;51.826;5.850;2023-10-31T07:32:41;11.34;97.14
67054;SHT31;53960;51.826;5.850;2023-10-31T07:35:07;11.32;97.17
67054;SHT31;53960;51.826;5.850;2023-10-31T07:37:33;11.35;97.19
67054;SHT31;53960;51.826;5.850;2023-10-31T07:39:58;11.39;96.94
67054;SHT31;53960;51.826;5.850;2023-10-31T07:42:24;11.41;96.91
67054;SHT31;53960;51.826;5.850;2023-10-31T07:44:49;11.36;96.99
67054;SHT31;53960;51.826;5.850;2023-10-31T07:47:15;11.38;96.88
67054;SHT31;53960;51.826;5.850;2023-10-31T07:49:41;11.41;97.01
67054;SHT31;53960;51.826;5.850;2023-10-31T07:52:06;11.44;96.57
67054;SHT31;53960;51.826;5.850;2023-10-31T07:54:31;11.45;96.82
67054;SHT31;53960;51.826;5.850;2023-10-31T07:56:57;11.44;96.72
67054;SHT31;53960;51.826;5.850;2023-10-31T07:59:22;11.45;96.92
67054;SHT31;53960;51.826;5.850;2023-10-31T08:01:47;11.48;96.61
67054;SHT31;53960;51.826;5.850;2023-10-31T08:04:14;11.48;96.44
67054;SHT31;53960;51.826;5.850;2023-10-31T08:06:40;11.44;96.70
67054;SHT31;53960;51.826;5.850;2023-10-31T08:09:05;11.48;96.62
67054;SHT31;53960;51.826;5.850;2023-10-31T08:11:31;11.44;96.75
67054;SHT31;53960;51.826;5.850;2023-10-31T08:13:57;11.46;96.59
67054;SHT31;53960;51.826;5.850;2023-10-31T08:16:23;11.52;96.70
67054;SHT31;53960;51.826;5.850;2023-10-31T08:18:48;11.54;96.78
67054;SHT31;53960;51.826;5.850;2023-10-31T08:21:14;11.55;96.19
67054;SHT31;53960;51.826;5.850;2023-10-31T08:23:39;11.54;96.48
67054;SHT31;53960;51.826;5.850;2023-10-31T08:26:05;11.55;96.65
67054;SHT31;53960;51.826;5.850;2023-10-31T08:28:30;11.68;96.18
67054;SHT31;53960;51.826;5.850;2023-10-31T08:30:57;11.65;96.19
67054;SHT31;53960;51.826;5.850;2023-10-31T08:33:22;11.69;96.11
67054;SHT31;53960;51.826;5.850;2023-10-31T08:35:48;11.73;95.70
67054;SHT31;53960;51.826;5.850;2023-10-31T08:38:13;11.68;96.00
67054;SHT31;53960;51.826;5.850;2023-10-31T08:40:39;11.68;96.07
67054;SHT31;53960;51.826;5.850;2023-10-31T08:43:04;11.65;96.54
67054;SHT31;53960;51.826;5.850;2023-10-31T08:45:31;11.72;96.28
67054;SHT31;53960;51.826;5.850;2023-10-31T08:47:57;11.76;96.34
67054;SHT31;53960;51.826;5.850;2023-10-31T08:50:22;11.79;96.24
67054;SHT31;53960;51.826;5.850;2023-10-31T08:52:47;11.90;95.95
67054;SHT31;53960;51.826;5.850;2023-10-31T08:55:13;11.89;96.03
67054;SHT31;53960;51.826;5.850;2023-10-31T08:57:38;11.90;96.08
67054;SHT31;53960;51.826;5.850;2023-10-31T09:00:05;11.94;95.67
67054;SHT31;53960;51.826;5.850;2023-10-31T09:02:31;11.97;95.76
67054;SHT31;53960;51.826;5.850;2023-10-31T09:04:56;12.03;95.73
67054;SHT31;53960;51.826;5.850;2023-10-31T09:07:22;12.02;95.70
67054;SHT31;53960;51.826;5.850;2023-10-31T09:09:48;12.10;95.67
67054;SHT31;53960;51.826;5.850;2023-10-31T09:12:14;12.10;96.10
67054;SHT31;53960;51.826;5.850;2023-10-31T09:14:39;12.23;96.01
67054;SHT31;53960;51.826;5.850;2023-10-31T09:17:06;12.31;95.74
67054;SHT31;53960;51.826;5.850;2023-10-31T09:19:32;12.36;95.70
67054;SHT31;53960;51.826;5.850;2023-10-31T09:21:57;12.36;95.83
67054;SHT31;53960;51.826;5.850;2023-10-31T09:24:23;12.50;95.26
67054;SHT31;53960;51.826;5.850;2023-10-31T09:26:49;12.47;95.35
67054;SHT31;53960;51.826;5.850;2023-10-31T09:29:14;12.45;95.15
67054;SHT31;53960;51.826;5.850;2023-10-31T09:31:39;12.44;95.35
67054;SHT31;53960;51.826;5.850;2023-10-31T09:34:05;12.45;95.20
67054;SHT31;53960;51.826;5.850;2023-10-31T09:36:34;12.41;95.53
67054;SHT31;53960;51.826;5.850;2023-10-31T09:39:02;12.44;95.86
67054;SHT31;53960;51.826;5.850;2023-10-31T09:41:28;12.38;95.91
67054;SHT31;53960;51.826;5.850;2023-10-31T09:43:53;12.48;95.41
67054;SHT31;53960;51.826;5.850;2023-10-31T09:46:21;12.48;95.36
67054;SHT31;53960;51.826;5.850;2023-10-31T09:48:46;12.50;95.18
67054;SHT31;53960;51.826;5.850;2023-10-31T09:51:12;12.60;95.17
67054;SHT31;53960;51.826;5.850;2023-10-31T09:53:39;12.61;95.24
67054;SHT31;53960;51.826;5.850;2023-10-31T09:56:06;12.67;95.79
67054;SHT31;53960;51.826;5.850;2023-10-31T09:58:32;12.65;95.44
67054;SHT31;53960;51.826;5.850;2023-10-31T10:00:57;12.65;94.97
67054;SHT31;53960;51.826;5.850;2023-10-31T10:03:23;12.60;95.10
67054;SHT31;53960;51.826;5.850;2023-10-31T10:05:48;12.60;94.99
67054;SHT31;53960;51.826;5.850;2023-10-31T10:08:14;12.62;95.20
67054;SHT31;53960;51.826;5.850;2023-10-31T10:10:40;12.65;95.37
67054;SHT31;53960;51.826;5.850;2023-10-31T10:13:05;12.69;95.10
67054;SHT31;53960;51.826;5.850;2023-10-31T10:15:43;12.68;95.28
67054;SHT31;53960;51.826;5.850;2023-10-31T10:18:08;12.60;95.07
67054;SHT31;53960;51.826;5.850;2023-10-31T10:20:33;12.60;95.15
67054;SHT31;53960;51.826;5.850;2023-10-31T10:23:03;12.65;95.00
67054;SHT31;53960;51.826;5.850;2023-10-31T10:25:29;12.68;94.99
67054;SHT31;53960;51.826;5.850;2023-10-31T10:27:55;12.67;94.91
67054;SHT31;53960;51.826;5.850;2023-10-31T10:30:21;12.68;94.55
67054;SHT31;53960;51.826;5.850;2023-10-31T10:32:49;12.74;94.66
67054;SHT31;53960;51.826;5.850;2023-10-31T10:35:16;12.75;94.74
67054;SHT31;53960;51.826;5.850;2023-10-31T10:37:42;12.78;94.64
67054;SHT31;53960;51.826;5.850;2023-10-31T10:40:10;12.77;94.88
67054;SHT31;53960;51.826;5.850;2023-10-31T10:42:46;12.78;94.63
67054;SHT31;53960;51.826;5.850;2023-10-31T10:45:13;12.88;94.72
67054;SHT31;53960;51.826;5.850;2023-10-31T10:47:46;12.99;94.32
67054;SHT31;53960;51.826;5.850;2023-10-31T10:50:12;12.99;94.27
67054;SHT31;53960;51.826;5.850;2023-10-31T10:52:49;13.03;94.21
67054;SHT31;53960;51.826;5.850;2023-10-31T10:55:25;13.06;94.28
67054;SHT31;53960;51.826;5.850;2023-10-31T11:00:28;13.08;94.01
67054;SHT31;53960;51.826;5.850;2023-10-31T11:02:55;13.05;93.78
67054;SHT31;53960;51.826;5.850;2023-10-31T11:05:23;13.01;94.08
67054;SHT31;53960;51.826;5.850;2023-10-31T11:07:48;12.98;94.02
67054;SHT31;53960;51.826;5.850;2023-10-31T11:10:15;12.96;94.06
67054;SHT31;53960;51.826;5.850;2023-10-31T11:12:42;12.98;94.12
67054;SHT31;53960;51.826;5.850;2023-10-31T11:15:10;13.01;93.77
67054;SHT31;53960;51.826;5.850;2023-10-31T11:17:40;13.03;93.88
67054;SHT31;53960;51.826;5.850;2023-10-31T11:20:11;13.26;92.88
67054;SHT31;53960;51.826;5.850;2023-10-31T11:22:46;13.39;92.83
67054;SHT31;53960;51.826;5.850;2023-10-31T11:25:18;13.47;92.84
67054;SHT31;53960;51.826;5.850;2023-10-31T11:27:45;13.46;92.74
67054;SHT31;53960;51.826;5.850;2023-10-31T11:30:28;13.47;92.87
67054;SHT31;53960;51.826;5.850;2023-10-31T11:32:55;13.42;92.76
67054;SHT31;53960;51.826;5.850;2023-10-31T11:35:22;13.30;92.65
67054;SHT31;53960;51.826;5.850;2023-10-31T11:37:49;13.24;92.36
67054;SHT31;53960;51.826;5.850;2023-10-31T11:40:22;13.24;91.88
67054;SHT31;53960;51.826;5.850;2023-10-31T11:42:51;13.35;91.78
67054;SHT31;53960;51.826;5.850;2023-10-31T11:45:42;13.29;91.95
67054;SHT31;53960;51.826;5.850;2023-10-31T11:48:10;13.35;91.98
67054;SHT31;53960;51.826;5.850;2023-10-31T11:50:36;13.19;92.13
67054;SHT31;53960;51.826;5.850;2023-10-31T11:53:12;13.09;92.71
67054;SHT31;53960;51.826;5.850;2023-10-31T11:55:43;13.10;92.12
67054;SHT31;53960;51.826;5.850;2023-10-31T11:58:22;13.08;92.30
67054;SHT31;53960;51.826;5.850;2023-10-31T12:00:50;13.10;91.99
67054;SHT31;53960;51.826;5.850;2023-10-31T12:03:17;13.09;91.61
67054;SHT31;53960;51.826;5.850;2023-10-31T12:05:56;13.08;92.29
67054;SHT31;53960;51.826;5.850;2023-10-31T12:08:29;13.09;92.47
67054;SHT31;53960;51.826;5.850;2023-10-31T12:11:05;13.16;92.23
67054;SHT31;53960;51.826;5.850;2023-10-31T12:13:31;13.20;92.25
67054;SHT31;53960;51.826;5.850;2023-10-31T12:15:56;13.24;92.30
67054;SHT31;53960;51.826;5.850;2023-10-31T12:18:22;13.24;92.32
67054;SHT31;53960;51.826;5.850;2023-10-31T12:20:50;13.32;92.01
67054;SHT31;53960;51.826;5.850;2023-10-31T12:23:17;13.35;92.13
67054;SHT31;53960;51.826;5.850;2023-10-31T12:25:47;13.36;91.97
67054;SHT31;53960;51.826;5.850;2023-10-31T12:30:46;13.26;91.84
67054;SHT31;53960;51.826;5.850;2023-10-31T12:33:12;13.32;92.10
67054;SHT31;53960;51.826;5.850;2023-10-31T12:35:38;13.32;92.44
67054;SHT31;53960;51.826;5.850;2023-10-31T12:38:03;13.29;92.27
67054;SHT31;53960;51.826;5.850;2023-10-31T12:40:29;13.30;92.59
67054;SHT31;53960;51.826;5.850;2023-10-31T12:42:55;13.27;92.36
67054;SHT31;53960;51.826;5.850;2023-10-31T12:45:20;13.29;92.22
67054;SHT31;53960;51.826;5.850;2023-10-31T12:48:03;13.29;91.93
67054;SHT31;53960;51.826;5.850;2023-10-31T12:50:31;13.26;92.14
67054;SHT31;53960;51.826;5.850;2023-10-31T12:52:56;13.24;91.94
67054;SHT31;53960;51.826;5.850;2023-10-31T12:55:27;13.32;92.01
67054;SHT31;53960;51.826;5.850;2023-10-31T12:57:56;13.38;91.71
67054;SHT31;53960;51.826;5.850;2023-10-31T13:00:22;13.47;91.51
67054;SHT31;53960;51.826;5.850;2023-10-31T13:02:51;13.43;91.53
67054;SHT31;53960;51.826;5.850;2023-10-31T13:05:17;13.40;90.99
67054;SHT31;53960;51.826;5.850;2023-10-31T13:07:50;13.33;91.27
67054;SHT31;53960;51.826;5.850;2023-10-31T13:10:18;13.33;91.00
67054;SHT31;53960;51.826;5.850;2023-10-31T13:12:47;13.30;91.02
67054;SHT31;53960;51.826;5.850;2023-10-31T13:15:14;13.40;91.51
67054;SHT31;53960;51.826;5.850;2023-10-31T13:17:39;13.40;91.49
67054;SHT31;53960;51.826;5.850;2023-10-31T13:20:08;13.43;91.06
67054;SHT31;53960;51.826;5.850;2023-10-31T13:22:35;13.38;90.80
67054;SHT31;53960;51.826;5.850;2023-10-31T13:25:01;13.38;90.64
67054;SHT31;53960;51.826;5.850;2023-10-31T13:27:33;13.35;90.77
67054;SHT31;53960;51.826;5.850;2023-10-31T13:30:01;13.36;90.64
67054;SHT31;53960;51.826;5.850;2023-10-31T13:32:26;13.40;90.67
67054;SHT31;53960;51.826;5.850;2023-10-31T13:34:51;13.38;90.70
67054;SHT31;53960;51.826;5.850;2023-10-31T13:37:17;13.40;91.31
67054;SHT31;53960;51.826;5.850;2023-10-31T13:39:42;13.42;90.37
67054;SHT31;53960;51.826;5.850;2023-10-31T13:42:07;13.42;90.25
67054;SHT31;53960;51.826;5.850;2023-10-31T13:44:35;13.47;90.61
67054;SHT31;53960;51.826;5.850;2023-10-31T13:47:01;13.60;90.71
67054;SHT31;53960;51.826;5.850;2023-10-31T13:49:26;13.68;90.03
67054;SHT31;53960;51.826;5.850;2023-10-31T13:51:52;13.66;90.29
67054;SHT31;53960;51.826;5.850;2023-10-31T13:54:17;13.63;90.62
67054;SHT31;53960;51.826;5.850;2023-10-31T13:56:42;13.64;90.56
67054;SHT31;53960;51.826;5.850;2023-10-31T13:59:11;13.67;90.11
67054;SHT31;53960;51.826;5.850;2023-10-31T14:01:37;13.64;90.21
67054;SHT31;53960;51.826;5.850;2023-10-31T14:04:02;13.56;90.79
67054;SHT31;53960;51.826;5.850;2023-10-31T14:06:28;13.56;90.88
67054;SHT31;53960;51.826;5.850;2023-10-31T14:08:56;13.51;90.68
67054;SHT31;53960;51.826;5.850;2023-10-31T14:11:21;13.44;91.16
67054;SHT31;53960;51.826;5.850;2023-10-31T14:13:47;13.40;91.46
67054;SHT31;53960;51.826;5.850;2023-10-31T14:16:12;13.38;91.78
67054;SHT31;53960;51.826;5.850;2023-10-31T14:18:38;13.38;90.88
67054;SHT31;53960;51.826;5.850;2023-10-31T14:21:04;13.36;90.60
67054;SHT31;53960;51.826;5.850;2023-10-31T14:23:30;13.36;90.55
67054;SHT31;53960;51.826;5.850;2023-10-31T14:25:56;13.36;90.19
67054;SHT31;53960;51.826;5.850;2023-10-31T14:28:21;13.35;90.07
67054;SHT31;53960;51.826;5.850;2023-10-31T14:30:46;13.32;89.79
67054;SHT31;53960;51.826;5.850;2023-10-31T14:33:12;13.33;89.31
67054;SHT31;53960;51.826;5.850;2023-10-31T14:35:39;13.27;89.66
67054;SHT31;53960;51.826;5.850;2023-10-31T14:38:04;13.29;89.61
67054;SHT31;53960;51.826;5.850;2023-10-31T14:40:29;13.22;89.52
67054;SHT31;53960;51.826;5.850;2023-10-31T14:42:55;13.23;89.21
67054;SHT31;53960;51.826;5.850;2023-10-31T14:45:20;13.22;89.38
67054;SHT31;53960;51.826;5.850;2023-10-31T14:47:46;13.18;89.84
67054;SHT31;53960;51.826;5.850;2023-10-31T14:50:11;13.18;90.49
67054;SHT31;53960;51.826;5.850;2023-10-31T14:52:37;13.15;91.07
67054;SHT31;53960;51.826;5.850;2023-10-31T14:55:02;13.15;90.65
67054;SHT31;53960;51.826;5.850;2023-10-31T14:57:28;13.16;90.70
67054;SHT31;53960;51.826;5.850;2023-10-31T14:59:53;13.15;90.65
67054;SHT31;53960;51.826;5.850;2023-10-31T15:02:22;13.15;90.88
67054;SHT31;53960;51.826;5.850;2023-10-31T15:04:47;13.16;90.91
67054;SHT31;53960;51.826;5.850;2023-10-31T15:07:12;13.12;91.20
67054;SHT31;53960;51.826;5.850;2023-10-31T15:09:38;13.10;91.44
67054;SHT31;53960;51.826;5.850;2023-10-31T15:12:03;13.08;91.55
67054;SHT31;53960;51.826;5.850;2023-10-31T15:14:29;13.05;92.03
67054;SHT31;53960;51.826;5.850;2023-10-31T15:16:54;13.03;91.88
67054;SHT31;53960;51.826;5.850;2023-10-31T15:19:19;13.05;91.98
67054;SHT31;53960;51.826;5.850;2023-10-31T15:21:45;13.01;91.43
67054;SHT31;53960;51.826;5.850;2023-10-31T15:24:10;13.01;91.60
67054;SHT31;53960;51.826;5.850;2023-10-31T15:26:37;13.01;91.34
67054;SHT31;53960;51.826;5.850;2023-10-31T15:29:04;12.96;91.21